createdAt,value
2018-11-22T12:17:30.351Z,60.60
2018-11-22T12:20:03.130Z,73.40
2018-11-22T12:22:35.804Z,73.20
2018-11-22T12:25:09.016Z,74.80
2018-11-22T12:27:42.415Z,82.40
2018-11-22T12:30:20.457Z,88.20
2018-11-22T12:32:57.055Z,102.00
2018-11-22T12:35:33.424Z,118.00
2018-11-22T12:38:09.967Z,124.00
2018-11-22T12:40:42.698Z,121.75
2018-11-22T12:43:14.668Z,139.75
2018-11-22T12:45:46.621Z,160.00
2018-11-22T12:48:19.960Z,156.50
2018-11-22T12:50:52.027Z,156.50
2018-11-22T12:53:23.975Z,163.50
2018-11-22T12:55:56.285Z,153.00
2018-11-22T12:58:28.905Z,162.25
2018-11-22T13:01:01.051Z,166.00
2018-11-22T13:03:32.830Z,149.00
2018-11-22T13:06:04.718Z,158.00
2018-11-22T13:08:36.722Z,142.50
2018-11-22T13:11:08.662Z,151.25
2018-11-22T13:13:40.970Z,150.00
2018-11-22T13:16:13.172Z,150.50
2018-11-22T13:18:45.692Z,141.25
2018-11-22T13:21:17.470Z,150.75
2018-11-22T13:23:49.007Z,151.00
2018-11-22T13:26:21.259Z,142.25
2018-11-22T13:28:54.282Z,146.50
2018-11-22T13:31:26.027Z,149.25
2018-11-22T13:33:57.696Z,138.00
2018-11-22T13:36:29.528Z,146.25
2018-11-22T13:39:01.666Z,148.75
2018-11-22T13:41:33.584Z,143.25
2018-11-22T13:44:05.293Z,134.25
2018-11-22T13:46:37.406Z,134.00
2018-11-22T13:49:09.817Z,145.75
2018-11-22T13:51:41.800Z,141.00
2018-11-22T13:54:16.834Z,138.50
2018-11-22T13:56:49.566Z,144.25
2018-11-22T13:59:26.384Z,134.00
2018-11-22T14:01:58.344Z,138.00
2018-11-22T14:04:30.049Z,139.50
2018-11-22T14:07:01.998Z,139.25
2018-11-22T14:09:37.624Z,140.25
2018-11-22T14:12:09.312Z,136.25
2018-11-22T14:14:41.427Z,142.25
2018-11-22T14:17:13.476Z,148.75
2018-11-22T14:19:45.192Z,142.50
2018-11-22T14:22:16.838Z,151.75
2018-11-22T14:24:48.861Z,147.50
2018-11-22T14:27:20.936Z,134.75
2018-11-22T14:29:53.636Z,148.00
2018-11-22T14:32:25.802Z,138.50
2018-11-22T14:35:00.570Z,149.25
2018-11-22T14:37:29.943Z,136.75
2018-11-22T14:40:02.782Z,150.50
2018-11-22T14:42:34.763Z,146.75
2018-11-22T14:45:07.112Z,151.00
2018-11-22T14:47:38.773Z,145.75
2018-11-22T14:50:14.305Z,149.25
2018-11-22T14:52:48.210Z,149.25
2018-11-22T14:55:20.003Z,145.50
2018-11-22T14:57:52.715Z,149.50
2018-11-22T15:00:25.519Z,139.75
2018-11-22T15:02:57.883Z,150.75
2018-11-22T15:05:30.326Z,141.75
2018-11-22T15:08:02.000Z,144.25
2018-11-22T15:10:34.215Z,143.25
2018-11-22T15:13:06.765Z,146.25
2018-11-22T15:15:38.999Z,148.50
2018-11-22T15:18:11.209Z,142.25
2018-11-22T15:20:43.472Z,145.50
2018-11-22T15:23:15.900Z,142.00
2018-11-22T15:25:48.020Z,154.50
2018-11-22T15:28:20.803Z,148.50
2018-11-22T15:30:52.957Z,139.75
2018-11-22T15:33:25.402Z,152.75
2018-11-22T15:35:57.475Z,152.00
2018-11-22T15:38:29.873Z,160.50
2018-11-22T15:41:01.920Z,168.50
2018-11-22T15:43:34.214Z,162.40
2018-11-22T15:46:06.072Z,167.00
2018-11-22T15:48:38.144Z,172.50
2018-11-22T15:51:10.107Z,171.25
2018-11-22T15:53:42.111Z,167.75
2018-11-22T15:56:14.039Z,171.50
2018-11-22T15:58:47.163Z,181.80
2018-11-22T16:01:19.328Z,209.20
2018-11-22T16:03:52.352Z,198.20
2018-11-22T16:06:24.176Z,213.00
2018-11-22T16:08:56.760Z,209.60
2018-11-22T16:11:29.072Z,210.40
2018-11-22T16:14:01.167Z,221.60
2018-11-22T16:16:33.240Z,202.00
2018-11-22T16:19:05.045Z,194.40
2018-11-22T16:21:37.060Z,198.50
2018-11-22T16:24:08.893Z,187.60
2018-11-22T16:26:41.052Z,194.25
2018-11-22T16:29:12.967Z,190.75
2018-11-22T16:31:45.082Z,190.25
2018-11-22T16:34:17.077Z,196.40
2018-11-22T16:36:49.226Z,203.60
2018-11-22T16:39:21.618Z,203.00
2018-11-22T16:41:54.658Z,191.00
2018-11-22T16:44:26.735Z,206.20
2018-11-22T16:46:58.474Z,195.60
2018-11-22T16:49:30.489Z,200.80
2018-11-22T16:52:02.147Z,196.00
2018-11-22T16:54:33.922Z,193.00
2018-11-22T16:57:06.649Z,198.00
2018-11-22T16:59:38.803Z,201.75
2018-11-22T17:02:11.111Z,191.50
2018-11-22T17:04:43.642Z,195.00
2018-11-22T17:07:15.518Z,194.50
2018-11-22T17:09:48.011Z,191.75
2018-11-22T17:12:19.880Z,194.50
2018-11-22T17:14:52.259Z,196.80
2018-11-22T17:17:23.921Z,195.40
2018-11-22T17:19:56.407Z,187.40
2018-11-22T17:22:28.064Z,185.40
2018-11-22T17:24:59.927Z,177.20
2018-11-22T17:27:31.439Z,180.00
2018-11-22T17:30:05.085Z,188.20
2018-11-22T17:32:35.856Z,187.20
2018-11-22T17:35:08.204Z,167.20
2018-11-22T17:37:40.096Z,181.00
2018-11-22T17:40:16.985Z,179.00
2018-11-22T17:42:48.964Z,188.60
2018-11-22T17:45:38.835Z,189.20
2018-11-22T17:48:11.419Z,175.80
2018-11-22T17:50:44.449Z,177.20
2018-11-22T17:53:16.464Z,181.80
2018-11-22T17:55:48.223Z,180.40
2018-11-22T17:58:20.679Z,180.80
2018-11-22T18:00:53.888Z,182.00
2018-11-22T18:03:25.784Z,177.40
2018-11-22T18:05:58.607Z,174.75
2018-11-22T18:08:30.382Z,180.00
2018-11-22T18:11:02.817Z,179.80
2018-11-22T18:13:34.583Z,172.20
2018-11-22T18:16:06.377Z,177.50
2018-11-22T18:18:38.361Z,178.00
2018-11-22T18:21:10.191Z,165.00
2018-11-22T18:23:42.429Z,168.50
2018-11-22T18:26:14.241Z,175.00
2018-11-22T18:28:46.849Z,171.50
2018-11-22T18:31:18.712Z,170.00
2018-11-22T18:33:50.301Z,172.75
2018-11-22T18:36:22.393Z,173.00
2018-11-22T18:38:54.348Z,178.00
2018-11-22T18:41:26.199Z,176.25
2018-11-22T18:43:58.466Z,177.75
2018-11-22T18:46:30.533Z,173.75
2018-11-22T18:49:02.196Z,171.00
2018-11-22T18:51:34.354Z,180.75
2018-11-22T18:54:05.958Z,175.25
2018-11-22T18:56:38.270Z,177.75
2018-11-22T18:59:09.914Z,172.75
2018-11-22T19:01:45.084Z,164.50
2018-11-22T19:04:13.905Z,172.50
2018-11-22T19:06:45.664Z,170.50
2018-11-22T19:09:17.401Z,175.75
2018-11-22T19:11:49.150Z,163.00
2018-11-22T19:14:21.395Z,171.75
2018-11-22T19:16:53.891Z,163.25
2018-11-22T19:19:25.637Z,178.00
2018-11-22T19:21:57.892Z,150.50
2018-11-22T19:24:29.468Z,169.75
2018-11-22T19:27:01.556Z,174.25
2018-11-22T19:29:33.860Z,170.25
2018-11-22T19:32:05.500Z,166.00
2018-11-22T19:34:37.599Z,173.75
2018-11-22T19:37:10.409Z,166.25
2018-11-22T19:39:43.220Z,170.25
2018-11-22T19:42:15.013Z,175.50
2018-11-22T19:44:47.069Z,168.50
2018-11-22T19:47:19.308Z,165.25
2018-11-22T19:49:51.546Z,170.25
2018-11-22T19:52:24.722Z,167.75
2018-11-22T19:54:56.538Z,168.00
2018-11-22T19:57:28.720Z,169.50
2018-11-22T20:00:00.571Z,168.50
2018-11-22T20:02:33.443Z,169.50
2018-11-22T20:05:05.296Z,165.00
2018-11-22T20:07:37.218Z,171.00
2018-11-22T20:10:16.360Z,168.50
2018-11-22T20:12:49.125Z,165.25
2018-11-22T20:15:21.079Z,169.50
2018-11-22T20:17:53.955Z,154.25
2018-11-22T20:20:26.294Z,147.25
2018-11-22T20:22:58.494Z,151.50
2018-11-22T20:25:30.228Z,147.00
2018-11-22T20:28:02.132Z,141.50
2018-11-22T20:30:35.167Z,143.50
2018-11-22T20:33:07.166Z,138.00
2018-11-22T20:35:38.965Z,139.75
2018-11-22T20:38:10.837Z,132.75
2018-11-22T20:40:42.573Z,125.00
2018-11-22T20:43:14.176Z,125.50
2018-11-22T20:45:46.171Z,126.75
2018-11-22T20:48:18.364Z,121.25
2018-11-22T20:50:50.285Z,116.50
2018-11-22T20:53:21.892Z,119.75
2018-11-22T20:55:55.032Z,117.50
2018-11-22T20:58:27.209Z,115.00
2018-11-22T21:00:58.835Z,111.50
2018-11-22T21:03:30.656Z,114.75
2018-11-22T21:06:02.743Z,112.75
2018-11-22T21:08:34.909Z,121.75
2018-11-22T21:11:07.180Z,121.00
2018-11-22T21:13:39.041Z,117.25
2018-11-22T21:16:10.883Z,122.75
2018-11-22T21:18:42.702Z,122.25
2018-11-22T21:21:15.003Z,118.50
2018-11-22T21:23:47.196Z,119.50
2018-11-22T21:26:19.342Z,115.00
2018-11-22T21:28:50.941Z,116.25
2018-11-22T21:31:22.606Z,114.75
2018-11-22T21:33:54.873Z,123.00
2018-11-22T21:36:26.503Z,115.00
2018-11-22T21:38:58.485Z,113.75
2018-11-22T21:41:30.712Z,118.50
2018-11-22T21:44:02.511Z,117.00
2018-11-22T21:46:34.777Z,109.00
2018-11-22T21:49:06.772Z,111.00
2018-11-22T21:51:39.537Z,110.00
2018-11-22T21:54:11.409Z,111.75
2018-11-22T21:56:43.012Z,106.25
2018-11-22T21:59:15.084Z,110.75
2018-11-22T22:01:46.781Z,114.00
2018-11-22T22:04:18.498Z,107.25
2018-11-22T22:06:50.599Z,107.00
2018-11-22T22:09:22.356Z,100.25
2018-11-22T22:11:54.029Z,101.25
2018-11-22T22:14:26.184Z,100.75
2018-11-22T22:16:58.739Z,102.00
2018-11-22T22:19:30.571Z,104.00
2018-11-22T22:22:02.109Z,103.25
2018-11-22T22:24:34.109Z,102.20
2018-11-22T22:27:05.872Z,107.25
2018-11-22T22:29:37.709Z,91.50
2018-11-22T22:32:09.720Z,96.00
2018-11-22T22:34:41.427Z,94.25
2018-11-22T22:37:13.286Z,103.25
2018-11-22T22:39:45.261Z,103.50
2018-11-22T22:42:16.962Z,103.50
2018-11-22T22:44:48.804Z,102.75
2018-11-22T22:47:20.719Z,95.75
2018-11-22T22:49:52.552Z,98.00
2018-11-22T22:52:25.069Z,100.25
2018-11-22T22:54:57.341Z,100.50
2018-11-22T22:57:29.346Z,106.00
2018-11-22T23:00:01.064Z,100.00
2018-11-22T23:02:33.126Z,96.00
2018-11-22T23:05:05.219Z,97.25
2018-11-22T23:07:37.457Z,100.80
2018-11-22T23:10:10.108Z,100.80
2018-11-22T23:12:41.906Z,98.60
2018-11-22T23:15:15.114Z,97.20
2018-11-22T23:17:47.119Z,100.00
2018-11-22T23:20:21.360Z,96.80
2018-11-22T23:22:53.301Z,92.20
2018-11-22T23:25:26.646Z,101.80
2018-11-22T23:27:58.888Z,86.25
2018-11-22T23:30:31.839Z,103.00
2018-11-22T23:33:06.422Z,91.20
2018-11-22T23:35:38.660Z,97.25
2018-11-22T23:38:10.603Z,95.20
2018-11-22T23:40:42.989Z,92.60
2018-11-22T23:43:14.791Z,97.20
2018-11-22T23:45:46.686Z,97.60
2018-11-22T23:48:18.444Z,97.20
2018-11-22T23:50:50.239Z,89.00
2018-11-22T23:53:21.905Z,104.50
2018-11-22T23:55:54.572Z,98.25
2018-11-22T23:58:26.660Z,101.75
